sensor_id;sensor_type;location;lat;lon;timestamp;P1;durP1;ratioP1;P2;durP2;ratioP2
15633;SDS011;14654;48.898;8.308;2022-12-07T00:02:21;15.47;;;14.07;;
15633;SDS011;14654;48.898;8.308;2022-12-07T00:04:48;16.67;;;15.17;;
15633;SDS011;14654;48.898;8.308;2022-12-07T00:07:14;16.10;;;14.70;;
15633;SDS011;14654;48.898;8.308;2022-12-07T00:09:39;16.10;;;14.70;;
15633;SDS011;14654;48.898;8.308;2022-12-07T00:12:06;15.77;;;14.27;;
15633;SDS011;14654;48.898;8.308;2022-12-07T00:14:32;15.50;;;14.10;;
15633;SDS011;14654;48.898;8.308;2022-12-07T00:16:58;15.67;;;14.17;;
15633;SDS011;14654;48.898;8.308;2022-12-07T00:19:23;15.77;;;14.30;;
15633;SDS011;14654;48.898;8.308;2022-12-07T00:21:48;14.53;;;13.23;;
15633;SDS011;14654;48.898;8.308;2022-12-07T00:24:14;16.57;;;15.07;;
15633;SDS011;14654;48.898;8.308;2022-12-07T00:26:40;14.90;;;13.60;;
15633;SDS011;14654;48.898;8.308;2022-12-07T00:29:08;16.07;;;14.67;;
15633;SDS011;14654;48.898;8.308;2022-12-07T00:31:45;15.70;;;14.20;;
15633;SDS011;14654;48.898;8.308;2022-12-07T00:34:12;15.53;;;14.13;;
15633;SDS011;14654;48.898;8.308;2022-12-07T00:36:40;16.10;;;14.60;;
15633;SDS011;14654;48.898;8.308;2022-12-07T00:39:05;17.07;;;15.50;;
15633;SDS011;14654;48.898;8.308;2022-12-07T00:41:31;16.17;;;14.67;;
15633;SDS011;14654;48.898;8.308;2022-12-07T00:43:57;16.03;;;14.63;;
15633;SDS011;14654;48.898;8.308;2022-12-07T00:46:22;17.00;;;15.50;;
15633;SDS011;14654;48.898;8.308;2022-12-07T00:48:48;15.97;;;14.47;;
15633;SDS011;14654;48.898;8.308;2022-12-07T00:51:16;15.63;;;14.33;;
15633;SDS011;14654;48.898;8.308;2022-12-07T00:53:42;16.37;;;14.93;;
15633;SDS011;14654;48.898;8.308;2022-12-07T00:56:09;16.47;;;14.97;;
15633;SDS011;14654;48.898;8.308;2022-12-07T00:58:39;16.77;;;15.27;;
15633;SDS011;14654;48.898;8.308;2022-12-07T01:01:05;16.23;;;14.70;;
15633;SDS011;14654;48.898;8.308;2022-12-07T01:03:32;16.40;;;14.90;;
15633;SDS011;14654;48.898;8.308;2022-12-07T01:05:58;16.60;;;15.10;;
15633;SDS011;14654;48.898;8.308;2022-12-07T01:08:24;16.67;;;15.20;;
15633;SDS011;14654;48.898;8.308;2022-12-07T01:11:01;16.83;;;15.27;;
15633;SDS011;14654;48.898;8.308;2022-12-07T01:13:29;17.33;;;15.70;;
15633;SDS011;14654;48.898;8.308;2022-12-07T01:15:58;16.60;;;14.97;;
15633;SDS011;14654;48.898;8.308;2022-12-07T01:18:26;16.87;;;15.37;;
15633;SDS011;14654;48.898;8.308;2022-12-07T01:23:24;16.07;;;14.63;;
15633;SDS011;14654;48.898;8.308;2022-12-07T01:25:54;16.47;;;14.87;;
15633;SDS011;14654;48.898;8.308;2022-12-07T01:28:20;17.10;;;15.50;;
15633;SDS011;14654;48.898;8.308;2022-12-07T01:30:53;16.20;;;14.80;;
15633;SDS011;14654;48.898;8.308;2022-12-07T01:33:22;16.07;;;14.63;;
15633;SDS011;14654;48.898;8.308;2022-12-07T01:35:47;15.93;;;14.43;;
15633;SDS011;14654;48.898;8.308;2022-12-07T01:38:12;15.83;;;14.43;;
15633;SDS011;14654;48.898;8.308;2022-12-07T01:40:38;15.67;;;14.23;;
15633;SDS011;14654;48.898;8.308;2022-12-07T01:43:04;16.80;;;15.20;;
15633;SDS011;14654;48.898;8.308;2022-12-07T01:45:40;17.37;;;15.77;;
15633;SDS011;14654;48.898;8.308;2022-12-07T01:48:06;16.97;;;15.47;;
15633;SDS011;14654;48.898;8.308;2022-12-07T01:50:34;16.97;;;15.47;;
15633;SDS011;14654;48.898;8.308;2022-12-07T01:53:01;16.10;;;14.70;;
15633;SDS011;14654;48.898;8.308;2022-12-07T01:55:29;15.87;;;14.47;;
15633;SDS011;14654;48.898;8.308;2022-12-07T01:57:55;19.10;;;17.50;;
15633;SDS011;14654;48.898;8.308;2022-12-07T02:00:21;19.77;;;18.10;;
15633;SDS011;14654;48.898;8.308;2022-12-07T02:02:54;19.70;;;17.90;;
15633;SDS011;14654;48.898;8.308;2022-12-07T02:05:25;18.23;;;16.53;;
15633;SDS011;14654;48.898;8.308;2022-12-07T02:07:51;18.83;;;17.23;;
15633;SDS011;14654;48.898;8.308;2022-12-07T02:10:29;20.20;;;18.20;;
15633;SDS011;14654;48.898;8.308;2022-12-07T02:12:58;19.63;;;17.80;;
15633;SDS011;14654;48.898;8.308;2022-12-07T02:25:04;22.33;;;20.40;;
15633;SDS011;14654;48.898;8.308;2022-12-07T02:27:06;24.03;;;21.83;;
15633;SDS011;14654;48.898;8.308;2022-12-07T02:32:27;18.70;;;17.00;;
15633;SDS011;14654;48.898;8.308;2022-12-07T02:35:06;19.13;;;17.43;;
15633;SDS011;14654;48.898;8.308;2022-12-07T02:37:39;20.57;;;18.77;;
15633;SDS011;14654;48.898;8.308;2022-12-07T02:40:14;18.57;;;16.87;;
15633;SDS011;14654;48.898;8.308;2022-12-07T02:42:47;16.20;;;14.80;;
15633;SDS011;14654;48.898;8.308;2022-12-07T02:45:17;16.23;;;14.77;;
15633;SDS011;14654;48.898;8.308;2022-12-07T02:47:46;16.83;;;15.33;;
15633;SDS011;14654;48.898;8.308;2022-12-07T02:50:17;15.80;;;14.40;;
15633;SDS011;14654;48.898;8.308;2022-12-07T02:52:44;16.10;;;14.60;;
15633;SDS011;14654;48.898;8.308;2022-12-07T02:55:09;14.90;;;13.50;;
15633;SDS011;14654;48.898;8.308;2022-12-07T03:00:44;16.20;;;14.70;;
15633;SDS011;14654;48.898;8.308;2022-12-07T03:03:17;21.47;;;19.50;;
15633;SDS011;14654;48.898;8.308;2022-12-07T03:09:05;21.27;;;19.27;;
15633;SDS011;14654;48.898;8.308;2022-12-07T03:16:23;16.53;;;15.03;;
15633;SDS011;14654;48.898;8.308;2022-12-07T03:19:03;16.43;;;14.93;;
15633;SDS011;14654;48.898;8.308;2022-12-07T03:21:54;15.83;;;14.43;;
15633;SDS011;14654;48.898;8.308;2022-12-07T03:24:26;17.60;;;16.03;;
15633;SDS011;14654;48.898;8.308;2022-12-07T03:26:59;17.90;;;16.30;;
15633;SDS011;14654;48.898;8.308;2022-12-07T03:29:36;19.00;;;17.30;;
15633;SDS011;14654;48.898;8.308;2022-12-07T03:32:25;18.10;;;16.50;;
15633;SDS011;14654;48.898;8.308;2022-12-07T03:35:37;18.07;;;16.40;;
15633;SDS011;14654;48.898;8.308;2022-12-07T03:40:50;16.27;;;14.87;;
15633;SDS011;14654;48.898;8.308;2022-12-07T03:43:25;14.90;;;13.57;;
15633;SDS011;14654;48.898;8.308;2022-12-07T03:48:37;13.93;;;12.73;;
15633;SDS011;14654;48.898;8.308;2022-12-07T03:54:17;14.70;;;13.40;;
15633;SDS011;14654;48.898;8.308;2022-12-07T03:56:47;14.23;;;12.93;;
15633;SDS011;14654;48.898;8.308;2022-12-07T03:59:14;13.93;;;12.63;;
15633;SDS011;14654;48.898;8.308;2022-12-07T04:01:43;15.33;;;14.03;;
15633;SDS011;14654;48.898;8.308;2022-12-07T04:04:09;15.10;;;13.70;;
15633;SDS011;14654;48.898;8.308;2022-12-07T04:06:34;15.03;;;13.63;;
15633;SDS011;14654;48.898;8.308;2022-12-07T04:09:00;15.33;;;13.87;;
15633;SDS011;14654;48.898;8.308;2022-12-07T04:11:25;14.50;;;13.20;;
15633;SDS011;14654;48.898;8.308;2022-12-07T04:13:50;16.23;;;14.63;;
15633;SDS011;14654;48.898;8.308;2022-12-07T04:16:34;14.93;;;13.43;;
15633;SDS011;14654;48.898;8.308;2022-12-07T04:19:00;14.67;;;13.27;;
15633;SDS011;14654;48.898;8.308;2022-12-07T04:21:25;15.10;;;13.60;;
15633;SDS011;14654;48.898;8.308;2022-12-07T04:23:50;14.87;;;13.47;;
15633;SDS011;14654;48.898;8.308;2022-12-07T04:26:16;15.60;;;14.10;;
15633;SDS011;14654;48.898;8.308;2022-12-07T04:28:41;18.30;;;16.50;;
15633;SDS011;14654;48.898;8.308;2022-12-07T04:31:06;18.03;;;16.23;;
15633;SDS011;14654;48.898;8.308;2022-12-07T04:33:32;18.93;;;17.07;;
15633;SDS011;14654;48.898;8.308;2022-12-07T04:35:57;18.20;;;16.47;;
15633;SDS011;14654;48.898;8.308;2022-12-07T04:38:22;18.73;;;16.83;;
15633;SDS011;14654;48.898;8.308;2022-12-07T04:40:48;17.53;;;15.73;;
15633;SDS011;14654;48.898;8.308;2022-12-07T04:43:13;17.83;;;16.13;;
15633;SDS011;14654;48.898;8.308;2022-12-07T04:45:38;18.93;;;17.13;;
15633;SDS011;14654;48.898;8.308;2022-12-07T04:48:03;18.43;;;16.73;;
15633;SDS011;14654;48.898;8.308;2022-12-07T04:50:29;17.27;;;15.60;;
15633;SDS011;14654;48.898;8.308;2022-12-07T04:52:54;18.03;;;16.33;;
15633;SDS011;14654;48.898;8.308;2022-12-07T04:55:20;18.87;;;17.07;;
15633;SDS011;14654;48.898;8.308;2022-12-07T04:57:45;18.73;;;16.97;;
15633;SDS011;14654;48.898;8.308;2022-12-07T05:00:11;18.03;;;16.37;;
15633;SDS011;14654;48.898;8.308;2022-12-07T05:02:37;18.00;;;16.37;;
15633;SDS011;14654;48.898;8.308;2022-12-07T05:05:02;18.13;;;16.33;;
15633;SDS011;14654;48.898;8.308;2022-12-07T05:07:28;18.57;;;16.67;;
15633;SDS011;14654;48.898;8.308;2022-12-07T05:09:53;16.83;;;15.23;;
15633;SDS011;14654;48.898;8.308;2022-12-07T05:12:18;17.30;;;15.70;;
15633;SDS011;14654;48.898;8.308;2022-12-07T05:14:44;17.53;;;15.83;;
15633;SDS011;14654;48.898;8.308;2022-12-07T05:17:09;17.80;;;16.20;;
15633;SDS011;14654;48.898;8.308;2022-12-07T05:19:36;18.13;;;16.40;;
15633;SDS011;14654;48.898;8.308;2022-12-07T05:22:01;17.93;;;16.00;;
15633;SDS011;14654;48.898;8.308;2022-12-07T05:24:27;16.87;;;15.27;;
15633;SDS011;14654;48.898;8.308;2022-12-07T05:26:52;16.40;;;14.80;;
15633;SDS011;14654;48.898;8.308;2022-12-07T05:29:18;17.50;;;15.83;;
15633;SDS011;14654;48.898;8.308;2022-12-07T05:31:43;16.47;;;14.97;;
15633;SDS011;14654;48.898;8.308;2022-12-07T05:34:09;16.80;;;15.30;;
15633;SDS011;14654;48.898;8.308;2022-12-07T05:36:35;16.90;;;15.33;;
15633;SDS011;14654;48.898;8.308;2022-12-07T05:39:01;16.50;;;15.00;;
15633;SDS011;14654;48.898;8.308;2022-12-07T05:41:26;15.97;;;14.57;;
15633;SDS011;14654;48.898;8.308;2022-12-07T05:44:10;16.20;;;14.60;;
15633;SDS011;14654;48.898;8.308;2022-12-07T05:46:35;15.07;;;13.67;;
15633;SDS011;14654;48.898;8.308;2022-12-07T05:49:01;15.27;;;13.77;;
15633;SDS011;14654;48.898;8.308;2022-12-07T05:51:27;15.67;;;14.17;;
15633;SDS011;14654;48.898;8.308;2022-12-07T05:53:53;14.67;;;13.33;;
15633;SDS011;14654;48.898;8.308;2022-12-07T05:56:18;15.90;;;14.40;;
15633;SDS011;14654;48.898;8.308;2022-12-07T05:58:44;16.27;;;14.77;;
15633;SDS011;14654;48.898;8.308;2022-12-07T06:01:41;14.27;;;12.97;;
15633;SDS011;14654;48.898;8.308;2022-12-07T06:04:07;15.00;;;13.60;;
15633;SDS011;14654;48.898;8.308;2022-12-07T06:06:32;14.77;;;13.33;;
15633;SDS011;14654;48.898;8.308;2022-12-07T06:08:57;15.27;;;13.80;;
15633;SDS011;14654;48.898;8.308;2022-12-07T06:11:23;14.77;;;13.37;;
15633;SDS011;14654;48.898;8.308;2022-12-07T06:14:07;15.57;;;14.10;;
15633;SDS011;14654;48.898;8.308;2022-12-07T06:16:32;14.90;;;13.50;;
15633;SDS011;14654;48.898;8.308;2022-12-07T06:18:57;14.73;;;13.40;;
15633;SDS011;14654;48.898;8.308;2022-12-07T06:21:23;15.77;;;14.27;;
15633;SDS011;14654;48.898;8.308;2022-12-07T06:23:50;14.90;;;13.50;;
15633;SDS011;14654;48.898;8.308;2022-12-07T06:26:16;15.97;;;14.40;;
15633;SDS011;14654;48.898;8.308;2022-12-07T06:28:41;14.53;;;13.13;;
15633;SDS011;14654;48.898;8.308;2022-12-07T06:31:06;15.00;;;13.60;;
15633;SDS011;14654;48.898;8.308;2022-12-07T06:33:32;13.67;;;12.37;;
15633;SDS011;14654;48.898;8.308;2022-12-07T06:35:58;12.70;;;11.50;;
15633;SDS011;14654;48.898;8.308;2022-12-07T06:38:23;13.17;;;11.97;;
15633;SDS011;14654;48.898;8.308;2022-12-07T06:40:48;13.33;;;12.07;;
15633;SDS011;14654;48.898;8.308;2022-12-07T06:43:14;13.10;;;11.90;;
15633;SDS011;14654;48.898;8.308;2022-12-07T06:45:40;12.13;;;11.00;;
15633;SDS011;14654;48.898;8.308;2022-12-07T06:48:06;12.33;;;11.10;;
15633;SDS011;14654;48.898;8.308;2022-12-07T06:50:32;12.30;;;11.10;;
15633;SDS011;14654;48.898;8.308;2022-12-07T06:52:57;12.73;;;11.53;;
15633;SDS011;14654;48.898;8.308;2022-12-07T06:55:22;12.37;;;11.17;;
15633;SDS011;14654;48.898;8.308;2022-12-07T06:57:48;12.20;;;11.00;;
15633;SDS011;14654;48.898;8.308;2022-12-07T07:00:13;12.73;;;11.43;;
15633;SDS011;14654;48.898;8.308;2022-12-07T07:02:39;13.10;;;11.83;;
15633;SDS011;14654;48.898;8.308;2022-12-07T07:05:05;11.90;;;10.80;;
15633;SDS011;14654;48.898;8.308;2022-12-07T07:07:30;12.60;;;11.40;;
15633;SDS011;14654;48.898;8.308;2022-12-07T07:09:55;12.60;;;11.40;;
15633;SDS011;14654;48.898;8.308;2022-12-07T07:12:21;12.63;;;11.43;;
15633;SDS011;14654;48.898;8.308;2022-12-07T07:14:46;12.03;;;10.93;;
15633;SDS011;14654;48.898;8.308;2022-12-07T07:17:12;12.40;;;11.23;;
15633;SDS011;14654;48.898;8.308;2022-12-07T07:19:37;11.83;;;10.83;;
15633;SDS011;14654;48.898;8.308;2022-12-07T07:22:03;13.97;;;11.60;;
15633;SDS011;14654;48.898;8.308;2022-12-07T07:24:29;13.17;;;11.80;;
15633;SDS011;14654;48.898;8.308;2022-12-07T07:26:54;12.30;;;11.10;;
15633;SDS011;14654;48.898;8.308;2022-12-07T07:29:20;12.03;;;10.83;;
15633;SDS011;14654;48.898;8.308;2022-12-07T07:31:45;11.07;;;10.07;;
15633;SDS011;14654;48.898;8.308;2022-12-07T07:34:10;11.20;;;10.20;;
15633;SDS011;14654;48.898;8.308;2022-12-07T07:36:36;11.47;;;10.37;;
15633;SDS011;14654;48.898;8.308;2022-12-07T07:39:01;10.40;;;9.30;;
15633;SDS011;14654;48.898;8.308;2022-12-07T07:41:26;10.93;;;9.93;;
15633;SDS011;14654;48.898;8.308;2022-12-07T07:43:52;10.60;;;9.60;;
15633;SDS011;14654;48.898;8.308;2022-12-07T07:46:17;10.73;;;9.73;;
15633;SDS011;14654;48.898;8.308;2022-12-07T07:48:42;10.83;;;9.83;;
15633;SDS011;14654;48.898;8.308;2022-12-07T07:51:08;10.47;;;9.57;;
15633;SDS011;14654;48.898;8.308;2022-12-07T07:53:33;11.73;;;10.57;;
15633;SDS011;14654;48.898;8.308;2022-12-07T07:55:59;12.30;;;11.20;;
15633;SDS011;14654;48.898;8.308;2022-12-07T07:58:24;12.13;;;11.03;;
15633;SDS011;14654;48.898;8.308;2022-12-07T08:00:50;12.63;;;11.43;;
15633;SDS011;14654;48.898;8.308;2022-12-07T08:03:15;12.60;;;11.50;;
15633;SDS011;14654;48.898;8.308;2022-12-07T08:05:41;12.97;;;11.70;;
15633;SDS011;14654;48.898;8.308;2022-12-07T08:08:06;12.53;;;11.23;;
15633;SDS011;14654;48.898;8.308;2022-12-07T08:10:31;12.73;;;11.37;;
15633;SDS011;14654;48.898;8.308;2022-12-07T08:12:57;12.93;;;11.63;;
15633;SDS011;14654;48.898;8.308;2022-12-07T08:15:36;11.77;;;10.63;;
15633;SDS011;14654;48.898;8.308;2022-12-07T08:18:03;12.13;;;11.00;;
15633;SDS011;14654;48.898;8.308;2022-12-07T08:20:31;11.90;;;10.80;;
15633;SDS011;14654;48.898;8.308;2022-12-07T08:22:58;11.07;;;10.07;;
15633;SDS011;14654;48.898;8.308;2022-12-07T08:25:24;11.50;;;10.40;;
15633;SDS011;14654;48.898;8.308;2022-12-07T08:27:50;11.40;;;10.30;;
15633;SDS011;14654;48.898;8.308;2022-12-07T08:30:16;12.10;;;10.90;;
15633;SDS011;14654;48.898;8.308;2022-12-07T08:32:41;11.73;;;10.63;;
15633;SDS011;14654;48.898;8.308;2022-12-07T08:35:08;11.77;;;10.67;;
15633;SDS011;14654;48.898;8.308;2022-12-07T08:37:35;11.37;;;10.37;;
15633;SDS011;14654;48.898;8.308;2022-12-07T08:40:00;10.87;;;9.87;;
15633;SDS011;14654;48.898;8.308;2022-12-07T08:42:26;11.57;;;10.47;;
15633;SDS011;14654;48.898;8.308;2022-12-07T08:44:54;11.87;;;10.67;;
15633;SDS011;14654;48.898;8.308;2022-12-07T08:47:22;12.00;;;10.90;;
15633;SDS011;14654;48.898;8.308;2022-12-07T08:49:48;12.73;;;11.53;;
15633;SDS011;14654;48.898;8.308;2022-12-07T08:52:16;12.43;;;11.27;;
15633;SDS011;14654;48.898;8.308;2022-12-07T08:54:42;11.40;;;10.40;;
15633;SDS011;14654;48.898;8.308;2022-12-07T08:57:08;11.73;;;10.63;;
15633;SDS011;14654;48.898;8.308;2022-12-07T08:59:35;12.23;;;11.13;;
15633;SDS011;14654;48.898;8.308;2022-12-07T09:02:01;12.20;;;11.00;;
15633;SDS011;14654;48.898;8.308;2022-12-07T09:04:27;13.20;;;12.00;;
15633;SDS011;14654;48.898;8.308;2022-12-07T09:06:53;11.90;;;10.87;;
15633;SDS011;14654;48.898;8.308;2022-12-07T09:09:19;12.47;;;11.27;;
15633;SDS011;14654;48.898;8.308;2022-12-07T09:11:44;12.13;;;11.00;;
15633;SDS011;14654;48.898;8.308;2022-12-07T09:14:10;13.63;;;12.33;;
15633;SDS011;14654;48.898;8.308;2022-12-07T09:16:37;13.57;;;12.37;;
15633;SDS011;14654;48.898;8.308;2022-12-07T09:19:02;13.03;;;11.93;;
15633;SDS011;14654;48.898;8.308;2022-12-07T09:21:28;12.30;;;11.20;;
15633;SDS011;14654;48.898;8.308;2022-12-07T09:23:54;11.30;;;10.30;;
15633;SDS011;14654;48.898;8.308;2022-12-07T09:26:20;11.97;;;10.90;;
15633;SDS011;14654;48.898;8.308;2022-12-07T09:28:45;12.27;;;11.17;;
15633;SDS011;14654;48.898;8.308;2022-12-07T09:31:10;14.93;;;13.63;;
15633;SDS011;14654;48.898;8.308;2022-12-07T09:33:36;18.47;;;16.77;;
15633;SDS011;14654;48.898;8.308;2022-12-07T09:36:02;15.77;;;14.47;;
15633;SDS011;14654;48.898;8.308;2022-12-07T09:38:28;14.67;;;13.30;;
15633;SDS011;14654;48.898;8.308;2022-12-07T09:40:54;15.47;;;14.03;;
15633;SDS011;14654;48.898;8.308;2022-12-07T09:43:21;21.23;;;19.23;;
15633;SDS011;14654;48.898;8.308;2022-12-07T09:45:49;24.40;;;22.13;;
15633;SDS011;14654;48.898;8.308;2022-12-07T09:48:39;36.50;;;33.00;;
15633;SDS011;14654;48.898;8.308;2022-12-07T09:51:17;37.50;;;33.87;;
15633;SDS011;14654;48.898;8.308;2022-12-07T09:53:45;31.13;;;28.13;;
15633;SDS011;14654;48.898;8.308;2022-12-07T09:56:15;23.10;;;20.77;;
15633;SDS011;14654;48.898;8.308;2022-12-07T09:58:42;21.07;;;19.10;;
15633;SDS011;14654;48.898;8.308;2022-12-07T10:03:40;24.53;;;22.20;;
15633;SDS011;14654;48.898;8.308;2022-12-07T10:06:12;22.27;;;20.10;;
15633;SDS011;14654;48.898;8.308;2022-12-07T10:08:38;19.20;;;17.40;;
15633;SDS011;14654;48.898;8.308;2022-12-07T10:11:03;17.97;;;16.17;;
15633;SDS011;14654;48.898;8.308;2022-12-07T10:13:35;19.60;;;17.60;;
15633;SDS011;14654;48.898;8.308;2022-12-07T10:16:06;22.93;;;20.70;;
15633;SDS011;14654;48.898;8.308;2022-12-07T10:18:52;20.63;;;18.53;;
15633;SDS011;14654;48.898;8.308;2022-12-07T10:28:58;16.93;;;15.13;;
15633;SDS011;14654;48.898;8.308;2022-12-07T10:31:25;18.90;;;16.30;;
15633;SDS011;14654;48.898;8.308;2022-12-07T10:41:28;11.87;;;10.57;;
15633;SDS011;14654;48.898;8.308;2022-12-07T10:43:54;10.80;;;9.70;;
15633;SDS011;14654;48.898;8.308;2022-12-07T10:58:01;8.13;;;7.43;;
15633;SDS011;14654;48.898;8.308;2022-12-07T11:00:43;8.27;;;7.57;;
15633;SDS011;14654;48.898;8.308;2022-12-07T11:03:23;8.27;;;7.40;;
15633;SDS011;14654;48.898;8.308;2022-12-07T11:05:53;7.50;;;6.80;;
15633;SDS011;14654;48.898;8.308;2022-12-07T11:08:51;8.40;;;7.27;;
15633;SDS011;14654;48.898;8.308;2022-12-07T11:11:33;7.47;;;6.77;;
15633;SDS011;14654;48.898;8.308;2022-12-07T11:14:05;7.17;;;6.53;;
15633;SDS011;14654;48.898;8.308;2022-12-07T11:22:08;7.53;;;6.93;;
15633;SDS011;14654;48.898;8.308;2022-12-07T11:38:17;7.70;;;6.87;;
15633;SDS011;14654;48.898;8.308;2022-12-07T11:40:49;7.70;;;7.00;;
15633;SDS011;14654;48.898;8.308;2022-12-07T11:44:06;7.37;;;6.67;;
15633;SDS011;14654;48.898;8.308;2022-12-07T11:46:17;7.90;;;7.10;;
15633;SDS011;14654;48.898;8.308;2022-12-07T11:51:10;7.60;;;6.90;;
15633;SDS011;14654;48.898;8.308;2022-12-07T12:03:51;10.33;;;9.23;;
15633;SDS011;14654;48.898;8.308;2022-12-07T12:06:21;10.93;;;9.93;;
15633;SDS011;14654;48.898;8.308;2022-12-07T12:08:53;11.37;;;10.27;;
15633;SDS011;14654;48.898;8.308;2022-12-07T12:11:36;12.63;;;11.33;;
15633;SDS011;14654;48.898;8.308;2022-12-07T12:22:27;10.27;;;9.27;;
15633;SDS011;14654;48.898;8.308;2022-12-07T12:24:59;11.07;;;10.00;;
15633;SDS011;14654;48.898;8.308;2022-12-07T12:27:31;11.67;;;10.57;;
15633;SDS011;14654;48.898;8.308;2022-12-07T12:30:00;11.40;;;10.40;;
15633;SDS011;14654;48.898;8.308;2022-12-07T12:32:39;12.33;;;11.23;;
15633;SDS011;14654;48.898;8.308;2022-12-07T12:37:53;12.90;;;11.70;;
15633;SDS011;14654;48.898;8.308;2022-12-07T12:45:20;11.50;;;10.47;;
15633;SDS011;14654;48.898;8.308;2022-12-07T12:47:53;10.50;;;9.50;;
15633;SDS011;14654;48.898;8.308;2022-12-07T12:53:13;10.33;;;9.33;;
15633;SDS011;14654;48.898;8.308;2022-12-07T12:58:28;10.80;;;9.80;;
15633;SDS011;14654;48.898;8.308;2022-12-07T13:03:59;11.63;;;10.47;;
15633;SDS011;14654;48.898;8.308;2022-12-07T13:08:50;10.73;;;9.73;;
15633;SDS011;14654;48.898;8.308;2022-12-07T13:11:20;10.40;;;9.50;;
15633;SDS011;14654;48.898;8.308;2022-12-07T13:16:58;11.63;;;10.53;;
15633;SDS011;14654;48.898;8.308;2022-12-07T13:19:47;12.80;;;11.50;;
15633;SDS011;14654;48.898;8.308;2022-12-07T13:24:57;13.90;;;12.60;;
15633;SDS011;14654;48.898;8.308;2022-12-07T13:27:23;13.47;;;12.17;;
15633;SDS011;14654;48.898;8.308;2022-12-07T13:29:51;13.03;;;11.73;;
15633;SDS011;14654;48.898;8.308;2022-12-07T13:32:23;13.03;;;11.90;;
15633;SDS011;14654;48.898;8.308;2022-12-07T13:34:50;12.33;;;11.23;;
15633;SDS011;14654;48.898;8.308;2022-12-07T13:39:47;12.40;;;11.20;;
15633;SDS011;14654;48.898;8.308;2022-12-07T13:42:19;13.80;;;12.40;;
15633;SDS011;14654;48.898;8.308;2022-12-07T13:44:49;13.10;;;11.90;;
15633;SDS011;14654;48.898;8.308;2022-12-07T13:50:26;13.23;;;12.00;;
15633;SDS011;14654;48.898;8.308;2022-12-07T13:52:57;12.17;;;10.90;;
15633;SDS011;14654;48.898;8.308;2022-12-07T13:55:24;13.10;;;11.90;;
15633;SDS011;14654;48.898;8.308;2022-12-07T13:57:52;12.20;;;11.10;;
15633;SDS011;14654;48.898;8.308;2022-12-07T14:07:59;12.17;;;10.97;;
15633;SDS011;14654;48.898;8.308;2022-12-07T14:10:34;11.17;;;10.07;;
15633;SDS011;14654;48.898;8.308;2022-12-07T14:13:00;11.60;;;10.50;;
15633;SDS011;14654;48.898;8.308;2022-12-07T14:15:32;11.87;;;10.77;;
15633;SDS011;14654;48.898;8.308;2022-12-07T14:17:59;11.77;;;10.67;;
15633;SDS011;14654;48.898;8.308;2022-12-07T14:20:32;12.00;;;10.80;;
15633;SDS011;14654;48.898;8.308;2022-12-07T14:23:05;11.07;;;10.10;;
15633;SDS011;14654;48.898;8.308;2022-12-07T14:25:49;11.27;;;10.17;;
15633;SDS011;14654;48.898;8.308;2022-12-07T14:28:27;10.23;;;9.43;;
15633;SDS011;14654;48.898;8.308;2022-12-07T14:30:58;10.47;;;9.57;;
15633;SDS011;14654;48.898;8.308;2022-12-07T14:33:23;10.03;;;9.23;;
15633;SDS011;14654;48.898;8.308;2022-12-07T14:35:49;10.33;;;9.33;;
15633;SDS011;14654;48.898;8.308;2022-12-07T14:38:19;10.30;;;9.30;;
15633;SDS011;14654;48.898;8.308;2022-12-07T14:40:45;10.20;;;9.30;;
15633;SDS011;14654;48.898;8.308;2022-12-07T14:43:11;9.33;;;8.53;;
15633;SDS011;14654;48.898;8.308;2022-12-07T14:45:39;8.57;;;7.80;;
15633;SDS011;14654;48.898;8.308;2022-12-07T14:48:05;9.30;;;8.50;;
15633;SDS011;14654;48.898;8.308;2022-12-07T14:50:34;9.13;;;8.23;;
15633;SDS011;14654;48.898;8.308;2022-12-07T14:53:03;9.30;;;8.50;;
15633;SDS011;14654;48.898;8.308;2022-12-07T14:55:41;8.87;;;8.07;;
15633;SDS011;14654;48.898;8.308;2022-12-07T14:58:11;8.77;;;7.97;;
15633;SDS011;14654;48.898;8.308;2022-12-07T15:00:38;8.93;;;8.13;;
15633;SDS011;14654;48.898;8.308;2022-12-07T15:03:04;8.70;;;7.90;;
15633;SDS011;14654;48.898;8.308;2022-12-07T15:05:29;8.73;;;8.03;;
15633;SDS011;14654;48.898;8.308;2022-12-07T15:07:54;9.43;;;8.63;;
15633;SDS011;14654;48.898;8.308;2022-12-07T15:10:21;10.47;;;9.57;;
15633;SDS011;14654;48.898;8.308;2022-12-07T15:12:59;11.73;;;10.73;;
15633;SDS011;14654;48.898;8.308;2022-12-07T15:15:44;11.53;;;10.43;;
15633;SDS011;14654;48.898;8.308;2022-12-07T15:18:10;11.17;;;10.20;;
15633;SDS011;14654;48.898;8.308;2022-12-07T15:20:35;11.00;;;10.00;;
15633;SDS011;14654;48.898;8.308;2022-12-07T15:23:01;10.60;;;9.70;;
15633;SDS011;14654;48.898;8.308;2022-12-07T15:25:26;11.73;;;10.63;;
15633;SDS011;14654;48.898;8.308;2022-12-07T15:27:51;11.80;;;10.70;;
15633;SDS011;14654;48.898;8.308;2022-12-07T15:30:17;12.00;;;10.90;;
15633;SDS011;14654;48.898;8.308;2022-12-07T15:32:42;11.70;;;10.60;;
15633;SDS011;14654;48.898;8.308;2022-12-07T15:35:08;13.07;;;11.87;;
15633;SDS011;14654;48.898;8.308;2022-12-07T15:37:34;14.07;;;12.77;;
15633;SDS011;14654;48.898;8.308;2022-12-07T15:39:59;15.20;;;13.70;;
15633;SDS011;14654;48.898;8.308;2022-12-07T15:42:25;26.43;;;22.30;;
15633;SDS011;14654;48.898;8.308;2022-12-07T15:44:50;46.77;;;37.27;;
15633;SDS011;14654;48.898;8.308;2022-12-07T15:47:35;48.93;;;39.87;;
15633;SDS011;14654;48.898;8.308;2022-12-07T15:50:05;40.97;;;36.77;;
15633;SDS011;14654;48.898;8.308;2022-12-07T15:52:33;53.77;;;47.97;;
15633;SDS011;14654;48.898;8.308;2022-12-07T15:54:58;51.97;;;46.57;;
15633;SDS011;14654;48.898;8.308;2022-12-07T15:57:28;51.83;;;46.93;;
15633;SDS011;14654;48.898;8.308;2022-12-07T15:59:54;32.33;;;29.33;;
15633;SDS011;14654;48.898;8.308;2022-12-07T16:02:19;29.50;;;26.77;;
15633;SDS011;14654;48.898;8.308;2022-12-07T16:04:45;23.90;;;21.70;;
15633;SDS011;14654;48.898;8.308;2022-12-07T16:07:10;25.83;;;23.43;;
15633;SDS011;14654;48.898;8.308;2022-12-07T16:09:36;37.53;;;33.80;;
15633;SDS011;14654;48.898;8.308;2022-12-07T16:12:02;29.23;;;26.40;;
15633;SDS011;14654;48.898;8.308;2022-12-07T16:14:28;31.07;;;28.07;;
15633;SDS011;14654;48.898;8.308;2022-12-07T16:16:53;28.73;;;25.93;;
15633;SDS011;14654;48.898;8.308;2022-12-07T16:19:19;37.27;;;33.67;;
15633;SDS011;14654;48.898;8.308;2022-12-07T16:21:45;43.43;;;39.33;;
15633;SDS011;14654;48.898;8.308;2022-12-07T16:24:10;59.33;;;53.43;;
15633;SDS011;14654;48.898;8.308;2022-12-07T16:26:37;46.30;;;41.87;;
15633;SDS011;14654;48.898;8.308;2022-12-07T16:29:02;38.27;;;34.67;;
15633;SDS011;14654;48.898;8.308;2022-12-07T16:31:28;31.97;;;28.87;;
15633;SDS011;14654;48.898;8.308;2022-12-07T16:33:54;31.73;;;28.57;;
15633;SDS011;14654;48.898;8.308;2022-12-07T16:36:21;38.60;;;34.90;;
15633;SDS011;14654;48.898;8.308;2022-12-07T16:38:49;46.20;;;41.90;;
15633;SDS011;14654;48.898;8.308;2022-12-07T16:41:14;40.63;;;36.73;;
15633;SDS011;14654;48.898;8.308;2022-12-07T16:43:40;44.77;;;40.50;;
15633;SDS011;14654;48.898;8.308;2022-12-07T16:46:05;34.27;;;30.87;;
15633;SDS011;14654;48.898;8.308;2022-12-07T16:48:31;27.87;;;25.17;;
15633;SDS011;14654;48.898;8.308;2022-12-07T16:51:02;25.73;;;23.17;;
15633;SDS011;14654;48.898;8.308;2022-12-07T16:53:31;25.37;;;21.90;;